sensor_id;sensor_type;location;lat;lon;timestamp;pressure;altitude;pressure_sealevel;temperature;humidity
73332;BME280;61560;33.718;73.040;2023-05-11T00:01:58;94266.34;;;23.31;31.64
73332;BME280;61560;33.718;73.040;2023-05-11T00:04:26;94271.19;;;23.25;31.97
73332;BME280;61560;33.718;73.040;2023-05-11T00:06:54;94273.97;;;23.20;32.30
73332;BME280;61560;33.718;73.040;2023-05-11T00:09:21;94270.41;;;23.19;31.68
73332;BME280;61560;33.718;73.040;2023-05-11T00:11:47;94274.97;;;23.17;31.58
73332;BME280;61560;33.718;73.040;2023-05-11T00:14:14;94274.72;;;23.20;31.00
73332;BME280;61560;33.718;73.040;2023-05-11T00:16:42;94280.56;;;23.22;30.85
73332;BME280;61560;33.718;73.040;2023-05-11T00:19:08;94277.50;;;23.26;31.35
73332;BME280;61560;33.718;73.040;2023-05-11T00:21:35;94282.09;;;23.23;31.44
73332;BME280;61560;33.718;73.040;2023-05-11T00:24:02;94288.94;;;23.28;31.70
73332;BME280;61560;33.718;73.040;2023-05-11T00:26:29;94285.91;;;23.31;31.48
73332;BME280;61560;33.718;73.040;2023-05-11T00:28:55;94280.56;;;23.28;31.76
73332;BME280;61560;33.718;73.040;2023-05-11T00:31:22;94290.47;;;23.29;32.23
73332;BME280;61560;33.718;73.040;2023-05-11T00:33:48;94298.59;;;23.27;31.94
73332;BME280;61560;33.718;73.040;2023-05-11T00:36:15;94304.97;;;23.27;31.60
73332;BME280;61560;33.718;73.040;2023-05-11T00:38:41;94300.66;;;23.32;31.98
73332;BME280;61560;33.718;73.040;2023-05-11T00:41:08;94298.88;;;23.34;31.72
73332;BME280;61560;33.718;73.040;2023-05-11T00:43:34;94300.66;;;23.32;31.90
73332;BME280;61560;33.718;73.040;2023-05-11T00:46:02;94311.34;;;23.33;32.84
73332;BME280;61560;33.718;73.040;2023-05-11T00:48:28;94316.69;;;23.37;32.40
73332;BME280;61560;33.718;73.040;2023-05-11T00:50:58;94310.56;;;23.38;32.12
73332;BME280;61560;33.718;73.040;2023-05-11T00:53:25;94326.59;;;23.49;32.23
73332;BME280;61560;33.718;73.040;2023-05-11T00:55:53;94338.28;;;23.53;31.97
73332;BME280;61560;33.718;73.040;2023-05-11T00:58:19;94343.34;;;23.54;33.57
73332;BME280;61560;33.718;73.040;2023-05-11T01:00:46;94340.56;;;23.49;33.11
73332;BME280;61560;33.718;73.040;2023-05-11T01:03:13;94347.16;;;23.63;32.28
73332;BME280;61560;33.718;73.040;2023-05-11T01:08:41;94348.94;;;23.82;32.17
73332;BME280;61560;33.718;73.040;2023-05-11T01:11:14;94345.63;;;23.89;31.98
73332;BME280;61560;33.718;73.040;2023-05-11T01:13:47;94350.97;;;23.98;31.26
73332;BME280;61560;33.718;73.040;2023-05-11T01:16:22;94364.44;;;24.00;31.06
73332;BME280;61560;33.718;73.040;2023-05-11T01:19:07;94359.63;;;24.06;31.71
73332;BME280;61560;33.718;73.040;2023-05-11T01:21:38;94368.53;;;24.15;32.34
73332;BME280;61560;33.718;73.040;2023-05-11T01:24:31;94376.63;;;24.30;33.10
73332;BME280;61560;33.718;73.040;2023-05-11T01:32:48;94378.25;;;25.35;33.52
73332;BME280;61560;33.718;73.040;2023-05-11T01:35:19;94367.28;;;26.55;31.69
73332;BME280;61560;33.718;73.040;2023-05-11T01:37:50;94366.19;;;28.26;29.08
73332;BME280;61560;33.718;73.040;2023-05-11T01:40:21;94369.16;;;29.92;27.19
73332;BME280;61560;33.718;73.040;2023-05-11T01:42:57;94362.34;;;31.49;24.96
73332;BME280;61560;33.718;73.040;2023-05-11T01:45:27;94369.28;;;32.90;22.22
73332;BME280;61560;33.718;73.040;2023-05-11T01:47:55;94367.75;;;34.06;20.74
73332;BME280;61560;33.718;73.040;2023-05-11T01:50:24;94368.47;;;35.05;18.59
73332;BME280;61560;33.718;73.040;2023-05-11T01:52:52;94371.38;;;35.83;17.64
73332;BME280;61560;33.718;73.040;2023-05-11T01:55:21;94373.00;;;36.66;17.19
73332;BME280;61560;33.718;73.040;2023-05-11T01:57:52;94368.03;;;37.32;15.75
73332;BME280;61560;33.718;73.040;2023-05-11T02:00:21;94364.13;;;37.75;14.84
73332;BME280;61560;33.718;73.040;2023-05-11T02:02:52;94363.91;;;38.30;14.37
73332;BME280;61560;33.718;73.040;2023-05-11T02:05:21;94368.25;;;38.81;14.03
73332;BME280;61560;33.718;73.040;2023-05-11T02:07:50;94370.28;;;38.90;13.50
73332;BME280;61560;33.718;73.040;2023-05-11T02:10:18;94376.66;;;39.31;13.39
73332;BME280;61560;33.718;73.040;2023-05-11T02:12:46;94373.78;;;39.52;12.70
73332;BME280;61560;33.718;73.040;2023-05-11T02:15:21;94376.44;;;39.81;12.65
73332;BME280;61560;33.718;73.040;2023-05-11T02:17:52;94374.84;;;40.11;13.04
73332;BME280;61560;33.718;73.040;2023-05-11T02:20:20;94367.63;;;40.33;12.80
73332;BME280;61560;33.718;73.040;2023-05-11T02:22:48;94373.22;;;40.19;12.77
73332;BME280;61560;33.718;73.040;2023-05-11T02:25:16;94370.00;;;39.92;12.64
73332;BME280;61560;33.718;73.040;2023-05-11T02:27:43;94374.28;;;39.49;12.94
73332;BME280;61560;33.718;73.040;2023-05-11T02:30:11;94385.13;;;39.08;13.68
73332;BME280;61560;33.718;73.040;2023-05-11T02:32:46;94382.97;;;38.47;14.45
73332;BME280;61560;33.718;73.040;2023-05-11T02:35:22;94378.47;;;37.85;15.27
73332;BME280;61560;33.718;73.040;2023-05-11T02:37:50;94384.72;;;37.16;16.64
73332;BME280;61560;33.718;73.040;2023-05-11T02:40:24;94383.69;;;36.66;16.85
73332;BME280;61560;33.718;73.040;2023-05-11T02:42:57;94395.34;;;35.97;17.59
73332;BME280;61560;33.718;73.040;2023-05-11T02:45:30;94402.31;;;35.35;18.83
73332;BME280;61560;33.718;73.040;2023-05-11T02:47:58;94404.91;;;34.82;19.28
73332;BME280;61560;33.718;73.040;2023-05-11T02:50:28;94414.41;;;34.60;20.02
73332;BME280;61560;33.718;73.040;2023-05-11T02:53:00;94405.69;;;34.58;20.53
73332;BME280;61560;33.718;73.040;2023-05-11T02:55:29;94413.13;;;34.53;20.89
73332;BME280;61560;33.718;73.040;2023-05-11T02:57:56;94420.78;;;34.68;20.62
73332;BME280;61560;33.718;73.040;2023-05-11T03:00:25;94423.88;;;34.63;20.42
73332;BME280;61560;33.718;73.040;2023-05-11T03:02:52;94424.16;;;34.49;20.43
73332;BME280;61560;33.718;73.040;2023-05-11T03:05:21;94426.25;;;34.41;19.39
73332;BME280;61560;33.718;73.040;2023-05-11T03:07:47;94433.91;;;34.31;19.84
73332;BME280;61560;33.718;73.040;2023-05-11T03:10:14;94426.88;;;34.32;18.56
73332;BME280;61560;33.718;73.040;2023-05-11T03:12:43;94428.75;;;34.37;18.55
73332;BME280;61560;33.718;73.040;2023-05-11T03:15:11;94436.34;;;34.35;18.29
73332;BME280;61560;33.718;73.040;2023-05-11T03:17:40;94434.56;;;34.47;17.60
73332;BME280;61560;33.718;73.040;2023-05-11T03:20:12;94433.63;;;34.44;18.51
73332;BME280;61560;33.718;73.040;2023-05-11T03:22:41;94442.34;;;34.46;17.74
73332;BME280;61560;33.718;73.040;2023-05-11T03:25:10;94435.56;;;34.42;17.35
73332;BME280;61560;33.718;73.040;2023-05-11T03:27:38;94432.78;;;34.59;17.61
73332;BME280;61560;33.718;73.040;2023-05-11T03:30:07;94437.66;;;34.91;17.33
73332;BME280;61560;33.718;73.040;2023-05-11T03:32:39;94430.91;;;35.62;16.87
73332;BME280;61560;33.718;73.040;2023-05-11T03:35:06;94430.69;;;36.38;16.48
73332;BME280;61560;33.718;73.040;2023-05-11T03:37:36;94433.66;;;36.93;16.13
73332;BME280;61560;33.718;73.040;2023-05-11T03:40:06;94425.41;;;37.82;14.81
73332;BME280;61560;33.718;73.040;2023-05-11T03:42:44;94424.06;;;38.71;13.58
73332;BME280;61560;33.718;73.040;2023-05-11T03:45:13;94428.97;;;39.62;13.84
73332;BME280;61560;33.718;73.040;2023-05-11T03:47:46;94423.22;;;40.49;12.78
73332;BME280;61560;33.718;73.040;2023-05-11T03:50:14;94427.69;;;41.31;12.06
73332;BME280;61560;33.718;73.040;2023-05-11T03:52:42;94425.56;;;42.16;11.30
73332;BME280;61560;33.718;73.040;2023-05-11T03:55:09;94422.25;;;42.33;10.69
73332;BME280;61560;33.718;73.040;2023-05-11T03:57:36;94422.78;;;42.94;10.42
73332;BME280;61560;33.718;73.040;2023-05-11T04:00:06;94425.50;;;43.31;10.24
73332;BME280;61560;33.718;73.040;2023-05-11T04:02:41;94426.94;;;43.86;10.13
73332;BME280;61560;33.718;73.040;2023-05-11T04:05:09;94421.56;;;44.37;9.63
73332;BME280;61560;33.718;73.040;2023-05-11T04:07:37;94417.47;;;45.02;9.12
73332;BME280;61560;33.718;73.040;2023-05-11T04:10:05;94415.28;;;45.50;9.09
73332;BME280;61560;33.718;73.040;2023-05-11T04:12:32;94424.56;;;45.95;8.24
73332;BME280;61560;33.718;73.040;2023-05-11T04:15:00;94421.97;;;46.36;7.61
73332;BME280;61560;33.718;73.040;2023-05-11T04:17:27;94420.63;;;46.57;7.05
73332;BME280;61560;33.718;73.040;2023-05-11T04:19:53;94425.56;;;46.89;7.09
73332;BME280;61560;33.718;73.040;2023-05-11T04:22:20;94417.44;;;47.23;6.84
73332;BME280;61560;33.718;73.040;2023-05-11T04:24:53;94419.53;;;47.21;8.21
73332;BME280;61560;33.718;73.040;2023-05-11T04:27:20;94418.00;;;47.77;8.61
73332;BME280;61560;33.718;73.040;2023-05-11T04:29:46;94412.69;;;48.56;7.34
73332;BME280;61560;33.718;73.040;2023-05-11T04:32:13;94418.94;;;49.15;7.51
73332;BME280;61560;33.718;73.040;2023-05-11T04:34:42;94417.91;;;49.54;6.89
73332;BME280;61560;33.718;73.040;2023-05-11T04:37:10;94415.78;;;49.31;6.62
73332;BME280;61560;33.718;73.040;2023-05-11T04:39:37;94414.78;;;48.98;7.52
73332;BME280;61560;33.718;73.040;2023-05-11T04:42:04;94421.13;;;48.69;6.63
73332;BME280;61560;33.718;73.040;2023-05-11T04:44:31;94429.00;;;48.65;6.69
73332;BME280;61560;33.718;73.040;2023-05-11T04:47:01;94429.94;;;48.71;6.12
73332;BME280;61560;33.718;73.040;2023-05-11T04:49:27;94429.13;;;48.69;7.21
73332;BME280;61560;33.718;73.040;2023-05-11T04:51:55;94427.47;;;49.09;8.10
73332;BME280;61560;33.718;73.040;2023-05-11T04:54:21;94430.19;;;49.50;6.25
73332;BME280;61560;33.718;73.040;2023-05-11T04:56:49;94425.78;;;49.75;6.36
73332;BME280;61560;33.718;73.040;2023-05-11T04:59:15;94437.78;;;49.87;5.83
73332;BME280;61560;33.718;73.040;2023-05-11T05:01:43;94436.53;;;49.68;6.19
73332;BME280;61560;33.718;73.040;2023-05-11T05:04:10;94429.38;;;49.73;6.36
73332;BME280;61560;33.718;73.040;2023-05-11T05:06:37;94429.31;;;49.46;6.83
73332;BME280;61560;33.718;73.040;2023-05-11T05:09:04;94436.88;;;48.84;6.30
73332;BME280;61560;33.718;73.040;2023-05-11T05:11:30;94432.28;;;48.55;6.81
73332;BME280;61560;33.718;73.040;2023-05-11T05:13:57;94433.41;;;48.44;6.53
73332;BME280;61560;33.718;73.040;2023-05-11T05:16:24;94429.59;;;48.39;7.63
73332;BME280;61560;33.718;73.040;2023-05-11T05:18:50;94427.47;;;47.99;8.65
73332;BME280;61560;33.718;73.040;2023-05-11T05:21:17;94429.38;;;47.70;8.80
73332;BME280;61560;33.718;73.040;2023-05-11T05:23:44;94428.72;;;47.72;8.19
73332;BME280;61560;33.718;73.040;2023-05-11T05:26:11;94425.13;;;47.73;8.32
73332;BME280;61560;33.718;73.040;2023-05-11T05:28:39;94432.19;;;47.88;8.78
73332;BME280;61560;33.718;73.040;2023-05-11T05:31:06;94426.41;;;48.10;8.52
73332;BME280;61560;33.718;73.040;2023-05-11T05:33:33;94429.00;;;48.21;7.57
73332;BME280;61560;33.718;73.040;2023-05-11T05:36:00;94423.06;;;48.17;7.63
73332;BME280;61560;33.718;73.040;2023-05-11T05:38:26;94418.63;;;47.75;6.80
73332;BME280;61560;33.718;73.040;2023-05-11T05:40:55;94415.34;;;47.26;6.76
73332;BME280;61560;33.718;73.040;2023-05-11T05:43:21;94421.75;;;46.85;7.21
73332;BME280;61560;33.718;73.040;2023-05-11T05:45:49;94409.94;;;46.44;7.42
73332;BME280;61560;33.718;73.040;2023-05-11T05:48:15;94411.81;;;46.02;8.04
73332;BME280;61560;33.718;73.040;2023-05-11T05:50:42;94411.00;;;45.51;7.64
73332;BME280;61560;33.718;73.040;2023-05-11T05:53:09;94420.19;;;44.83;7.85
73332;BME280;61560;33.718;73.040;2023-05-11T05:55:38;94421.56;;;44.37;8.36
73332;BME280;61560;33.718;73.040;2023-05-11T05:58:04;94418.47;;;44.04;6.82
73332;BME280;61560;33.718;73.040;2023-05-11T06:00:34;94412.97;;;43.40;6.63
73332;BME280;61560;33.718;73.040;2023-05-11T06:03:05;94415.28;;;42.89;7.23
73332;BME280;61560;33.718;73.040;2023-05-11T06:05:33;94415.84;;;42.60;7.19
73332;BME280;61560;33.718;73.040;2023-05-11T06:07:59;94408.88;;;42.52;7.17
73332;BME280;61560;33.718;73.040;2023-05-11T06:10:26;94404.22;;;42.33;6.50
73332;BME280;61560;33.718;73.040;2023-05-11T06:12:53;94406.81;;;42.15;6.14
73332;BME280;61560;33.718;73.040;2023-05-11T06:15:21;94401.84;;;41.68;5.43
73332;BME280;61560;33.718;73.040;2023-05-11T06:17:54;94402.00;;;41.46;6.75
73332;BME280;61560;33.718;73.040;2023-05-11T06:20:21;94399.75;;;41.45;7.47
73332;BME280;61560;33.718;73.040;2023-05-11T06:22:49;94406.41;;;41.47;7.28
73332;BME280;61560;33.718;73.040;2023-05-11T06:25:16;94394.25;;;41.60;8.15
73332;BME280;61560;33.718;73.040;2023-05-11T06:27:45;94397.72;;;41.59;6.26
73332;BME280;61560;33.718;73.040;2023-05-11T06:30:13;94401.75;;;41.66;6.37
73332;BME280;61560;33.718;73.040;2023-05-11T06:32:39;94396.88;;;41.56;6.02
73332;BME280;61560;33.718;73.040;2023-05-11T06:35:07;94395.91;;;41.40;5.74
73332;BME280;61560;33.718;73.040;2023-05-11T06:37:34;94389.78;;;41.34;6.51
73332;BME280;61560;33.718;73.040;2023-05-11T06:40:01;94391.94;;;41.22;6.20
73332;BME280;61560;33.718;73.040;2023-05-11T06:42:28;94387.06;;;40.90;7.07
73332;BME280;61560;33.718;73.040;2023-05-11T06:45:05;94373.56;;;40.69;7.33
73332;BME280;61560;33.718;73.040;2023-05-11T06:47:56;94379.44;;;40.71;7.22
73332;BME280;61560;33.718;73.040;2023-05-11T06:50:26;94378.28;;;40.65;7.02
73332;BME280;61560;33.718;73.040;2023-05-11T06:52:53;94375.44;;;40.76;6.85
73332;BME280;61560;33.718;73.040;2023-05-11T06:55:20;94370.44;;;40.77;6.96
73332;BME280;61560;33.718;73.040;2023-05-11T06:57:47;94374.94;;;40.80;6.78
73332;BME280;61560;33.718;73.040;2023-05-11T07:00:15;94376.28;;;40.79;7.19
73332;BME280;61560;33.718;73.040;2023-05-11T07:02:45;94374.31;;;40.70;6.30
73332;BME280;61560;33.718;73.040;2023-05-11T07:05:11;94378.31;;;40.53;6.29
73332;BME280;61560;33.718;73.040;2023-05-11T07:07:39;94375.94;;;40.17;6.55
73332;BME280;61560;33.718;73.040;2023-05-11T07:10:06;94370.84;;;39.83;6.13
73332;BME280;61560;33.718;73.040;2023-05-11T07:12:33;94383.16;;;39.74;6.59
73332;BME280;61560;33.718;73.040;2023-05-11T07:15:00;94374.97;;;39.38;5.86
73332;BME280;61560;33.718;73.040;2023-05-11T07:17:26;94370.94;;;39.31;7.15
73332;BME280;61560;33.718;73.040;2023-05-11T07:19:53;94371.06;;;39.33;8.05
73332;BME280;61560;33.718;73.040;2023-05-11T07:22:20;94365.16;;;39.41;7.54
73332;BME280;61560;33.718;73.040;2023-05-11T07:24:47;94369.72;;;39.34;7.70
73332;BME280;61560;33.718;73.040;2023-05-11T07:27:14;94374.34;;;39.39;8.16
73332;BME280;61560;33.718;73.040;2023-05-11T07:29:40;94369.91;;;39.48;8.42
73332;BME280;61560;33.718;73.040;2023-05-11T07:32:07;94368.75;;;39.62;8.01
73332;BME280;61560;33.718;73.040;2023-05-11T07:34:33;94363.56;;;39.70;8.34
73332;BME280;61560;33.718;73.040;2023-05-11T07:37:01;94358.56;;;39.71;7.41
73332;BME280;61560;33.718;73.040;2023-05-11T07:39:28;94364.31;;;39.71;8.22
73332;BME280;61560;33.718;73.040;2023-05-11T07:41:58;94354.47;;;39.74;8.09
73332;BME280;61560;33.718;73.040;2023-05-11T07:44:25;94349.84;;;39.69;8.31
73332;BME280;61560;33.718;73.040;2023-05-11T07:46:52;94352.66;;;39.57;8.66
73332;BME280;61560;33.718;73.040;2023-05-11T07:49:19;94356.06;;;39.44;8.39
73332;BME280;61560;33.718;73.040;2023-05-11T07:51:49;94358.25;;;39.13;8.98
73332;BME280;61560;33.718;73.040;2023-05-11T07:54:17;94357.13;;;38.97;10.01
73332;BME280;61560;33.718;73.040;2023-05-11T07:56:47;94356.31;;;38.85;10.17
73332;BME280;61560;33.718;73.040;2023-05-11T07:59:14;94361.88;;;38.83;9.93
73332;BME280;61560;33.718;73.040;2023-05-11T08:01:41;94358.75;;;38.79;10.07
73332;BME280;61560;33.718;73.040;2023-05-11T08:04:08;94355.75;;;38.77;10.63
73332;BME280;61560;33.718;73.040;2023-05-11T08:06:34;94362.69;;;38.74;10.52
73332;BME280;61560;33.718;73.040;2023-05-11T08:09:01;94363.16;;;38.70;11.06
73332;BME280;61560;33.718;73.040;2023-05-11T08:11:27;94366.03;;;38.70;11.16
73332;BME280;61560;33.718;73.040;2023-05-11T08:13:54;94353.81;;;38.70;10.33
73332;BME280;61560;33.718;73.040;2023-05-11T08:16:40;94349.16;;;38.65;10.94
73332;BME280;61560;33.718;73.040;2023-05-11T08:19:08;94352.94;;;38.67;10.02
73332;BME280;61560;33.718;73.040;2023-05-11T08:21:34;94345.84;;;38.68;10.60
73332;BME280;61560;33.718;73.040;2023-05-11T08:24:01;94342.66;;;38.64;10.47
73332;BME280;61560;33.718;73.040;2023-05-11T08:26:28;94345.72;;;38.57;10.38
73332;BME280;61560;33.718;73.040;2023-05-11T08:28:54;94344.84;;;38.54;10.08
73332;BME280;61560;33.718;73.040;2023-05-11T08:31:21;94347.56;;;38.52;10.59
73332;BME280;61560;33.718;73.040;2023-05-11T08:33:48;94338.81;;;38.50;11.25
73332;BME280;61560;33.718;73.040;2023-05-11T08:36:14;94341.41;;;38.46;11.25
73332;BME280;61560;33.718;73.040;2023-05-11T08:38:43;94336.03;;;38.31;12.40
73332;BME280;61560;33.718;73.040;2023-05-11T08:41:12;94338.19;;;38.11;12.52
73332;BME280;61560;33.718;73.040;2023-05-11T08:43:41;94329.84;;;37.85;12.13
73332;BME280;61560;33.718;73.040;2023-05-11T08:46:10;94328.66;;;37.68;12.05
73332;BME280;61560;33.718;73.040;2023-05-11T08:48:40;94335.72;;;37.67;11.57
73332;BME280;61560;33.718;73.040;2023-05-11T08:51:08;94331.50;;;37.68;10.80
73332;BME280;61560;33.718;73.040;2023-05-11T08:53:35;94330.75;;;37.68;10.85
73332;BME280;61560;33.718;73.040;2023-05-11T08:56:02;94330.00;;;37.67;11.85
73332;BME280;61560;33.718;73.040;2023-05-11T08:58:33;94326.06;;;37.63;11.11
73332;BME280;61560;33.718;73.040;2023-05-11T09:01:03;94330.00;;;37.48;10.47
73332;BME280;61560;33.718;73.040;2023-05-11T09:03:33;94322.06;;;37.37;11.16
73332;BME280;61560;33.718;73.040;2023-05-11T09:06:02;94328.78;;;37.32;10.97
73332;BME280;61560;33.718;73.040;2023-05-11T09:08:36;94322.47;;;37.34;11.11
73332;BME280;61560;33.718;73.040;2023-05-11T09:11:03;94329.38;;;37.31;11.76
73332;BME280;61560;33.718;73.040;2023-05-11T09:13:31;94323.84;;;37.23;11.26
73332;BME280;61560;33.718;73.040;2023-05-11T09:15:58;94323.22;;;37.15;11.62
73332;BME280;61560;33.718;73.040;2023-05-11T09:18:25;94320.22;;;37.13;11.17
73332;BME280;61560;33.718;73.040;2023-05-11T09:20:53;94318.25;;;37.16;12.33
73332;BME280;61560;33.718;73.040;2023-05-11T09:23:24;94320.06;;;37.21;11.91
73332;BME280;61560;33.718;73.040;2023-05-11T09:25:54;94315.53;;;37.18;11.64
73332;BME280;61560;33.718;73.040;2023-05-11T09:28:23;94315.25;;;37.23;12.02
73332;BME280;61560;33.718;73.040;2023-05-11T09:30:50;94303.09;;;37.23;12.59
73332;BME280;61560;33.718;73.040;2023-05-11T09:33:24;94311.34;;;37.19;12.70
73332;BME280;61560;33.718;73.040;2023-05-11T09:35:52;94310.44;;;37.16;12.20
73332;BME280;61560;33.718;73.040;2023-05-11T09:38:19;94300.09;;;37.11;11.96
73332;BME280;61560;33.718;73.040;2023-05-11T09:41:19;94303.25;;;37.15;11.80
73332;BME280;61560;33.718;73.040;2023-05-11T09:43:45;94311.03;;;37.24;11.48
73332;BME280;61560;33.718;73.040;2023-05-11T09:46:20;94302.91;;;37.30;11.77
73332;BME280;61560;33.718;73.040;2023-05-11T09:48:59;94292.56;;;37.35;11.23
73332;BME280;61560;33.718;73.040;2023-05-11T09:51:31;94288.97;;;37.34;11.86
73332;BME280;61560;33.718;73.040;2023-05-11T09:54:00;94281.44;;;37.29;11.54
73332;BME280;61560;33.718;73.040;2023-05-11T09:56:48;94291.66;;;37.23;11.16
73332;BME280;61560;33.718;73.040;2023-05-11T09:59:36;94278.25;;;37.16;10.71
73332;BME280;61560;33.718;73.040;2023-05-11T10:02:25;94284.28;;;37.10;12.22
73332;BME280;61560;33.718;73.040;2023-05-11T10:04:55;94286.53;;;37.12;11.97
73332;BME280;61560;33.718;73.040;2023-05-11T10:07:30;94285.81;;;37.11;11.65
73332;BME280;61560;33.718;73.040;2023-05-11T10:10:08;94292.84;;;37.10;12.87
73332;BME280;61560;33.718;73.040;2023-05-11T10:13:01;94279.75;;;37.07;12.17
73332;BME280;61560;33.718;73.040;2023-05-11T10:15:38;94273.03;;;37.03;12.52
73332;BME280;61560;33.718;73.040;2023-05-11T10:18:11;94274.34;;;37.02;12.25
73332;BME280;61560;33.718;73.040;2023-05-11T10:20:38;94272.88;;;37.01;12.65
73332;BME280;61560;33.718;73.040;2023-05-11T10:23:20;94278.88;;;36.95;12.84
73332;BME280;61560;33.718;73.040;2023-05-11T10:25:55;94267.91;;;36.91;12.30
73332;BME280;61560;33.718;73.040;2023-05-11T10:28:31;94268.66;;;36.92;11.71
73332;BME280;61560;33.718;73.040;2023-05-11T10:31:12;94268.50;;;36.90;12.31
73332;BME280;61560;33.718;73.040;2023-05-11T10:33:47;94266.50;;;36.83;12.29
73332;BME280;61560;33.718;73.040;2023-05-11T10:36:22;94270.56;;;36.80;12.28
73332;BME280;61560;33.718;73.040;2023-05-11T10:38:58;94271.16;;;36.69;12.33
73332;BME280;61560;33.718;73.040;2023-05-11T10:41:44;94269.78;;;36.60;12.35
73332;BME280;61560;33.718;73.040;2023-05-11T10:54:17;94276.25;;;36.15;14.15
73332;BME280;61560;33.718;73.040;2023-05-11T11:03:54;94253.22;;;35.94;15.13
73332;BME280;61560;33.718;73.040;2023-05-11T11:06:27;94266.75;;;36.03;14.48
73332;BME280;61560;33.718;73.040;2023-05-11T11:09:04;94264.97;;;36.07;14.43
73332;BME280;61560;33.718;73.040;2023-05-11T11:12:07;94272.34;;;36.10;13.96
73332;BME280;61560;33.718;73.040;2023-05-11T11:14:53;94273.50;;;36.07;14.26
73332;BME280;61560;33.718;73.040;2023-05-11T11:17:22;94265.25;;;36.02;14.38
73332;BME280;61560;33.718;73.040;2023-05-11T11:19:54;94257.56;;;35.95;13.59
73332;BME280;61560;33.718;73.040;2023-05-11T11:25:08;94260.28;;;35.76;14.67
73332;BME280;61560;33.718;73.040;2023-05-11T11:30:21;94263.22;;;35.59;14.97
73332;BME280;61560;33.718;73.040;2023-05-11T11:38:10;94269.94;;;35.36;15.28
73332;BME280;61560;33.718;73.040;2023-05-11T11:40:42;94270.03;;;35.29;15.59
73332;BME280;61560;33.718;73.040;2023-05-11T11:43:14;94262.59;;;35.16;16.09
73332;BME280;61560;33.718;73.040;2023-05-11T11:46:03;94264.06;;;35.08;16.72
73332;BME280;61560;33.718;73.040;2023-05-11T11:48:35;94269.06;;;35.00;16.66
73332;BME280;61560;33.718;73.040;2023-05-11T11:51:10;94270.41;;;34.99;16.19
73332;BME280;61560;33.718;73.040;2023-05-11T12:01:21;94252.41;;;35.13;16.62
73332;BME280;61560;33.718;73.040;2023-05-11T12:06:35;94260.31;;;35.32;16.64
73332;BME280;61560;33.718;73.040;2023-05-11T12:09:03;94259.63;;;35.41;16.66
73332;BME280;61560;33.718;73.040;2023-05-11T12:11:33;94259.94;;;35.45;16.72
73332;BME280;61560;33.718;73.040;2023-05-11T12:14:01;94262.06;;;35.45;16.72
73332;BME280;61560;33.718;73.040;2023-05-11T12:16:28;94254.06;;;35.43;16.42
73332;BME280;61560;33.718;73.040;2023-05-11T12:18:57;94249.31;;;35.46;16.10
73332;BME280;61560;33.718;73.040;2023-05-11T12:21:27;94242.63;;;35.51;16.58
73332;BME280;61560;33.718;73.040;2023-05-11T12:24:02;94248.16;;;35.49;15.51
73332;BME280;61560;33.718;73.040;2023-05-11T12:26:31;94238.84;;;35.48;15.89
73332;BME280;61560;33.718;73.040;2023-05-11T12:29:10;94252.97;;;35.56;14.69
73332;BME280;61560;33.718;73.040;2023-05-11T12:31:43;94250.13;;;35.56;14.37
73332;BME280;61560;33.718;73.040;2023-05-11T12:34:17;94252.06;;;35.53;14.13
73332;BME280;61560;33.718;73.040;2023-05-11T12:36:46;94243.78;;;35.48;14.21
73332;BME280;61560;33.718;73.040;2023-05-11T12:39:18;94244.19;;;35.44;14.38
73332;BME280;61560;33.718;73.040;2023-05-11T12:41:47;94245.22;;;35.39;14.05
73332;BME280;61560;33.718;73.040;2023-05-11T12:44:16;94251.78;;;35.32;14.29
73332;BME280;61560;33.718;73.040;2023-05-11T12:46:45;94253.97;;;35.24;14.47
73332;BME280;61560;33.718;73.040;2023-05-11T12:49:16;94252.66;;;35.08;15.31
73332;BME280;61560;33.718;73.040;2023-05-11T12:57:04;94253.16;;;34.63;16.28
73332;BME280;61560;33.718;73.040;2023-05-11T12:59:36;94253.47;;;34.49;17.18
73332;BME280;61560;33.718;73.040;2023-05-11T13:02:13;94249.25;;;34.33;16.73
73332;BME280;61560;33.718;73.040;2023-05-11T13:04:42;94252.38;;;34.20;17.86
73332;BME280;61560;33.718;73.040;2023-05-11T13:07:10;94262.72;;;34.08;17.49
73332;BME280;61560;33.718;73.040;2023-05-11T13:09:39;94255.41;;;33.98;17.81
73332;BME280;61560;33.718;73.040;2023-05-11T13:12:13;94255.88;;;33.87;17.41
73332;BME280;61560;33.718;73.040;2023-05-11T13:15:09;94254.06;;;33.74;16.91
73332;BME280;61560;33.718;73.040;2023-05-11T13:17:41;94263.97;;;33.65;17.39
73332;BME280;61560;33.718;73.040;2023-05-11T13:20:22;94263.50;;;33.52;17.08
73332;BME280;61560;33.718;73.040;2023-05-11T13:23:13;94263.16;;;33.40;17.67
73332;BME280;61560;33.718;73.040;2023-05-11T13:28:18;94269.13;;;33.20;17.21
73332;BME280;61560;33.718;73.040;2023-05-11T13:30:46;94270.47;;;33.11;17.50
73332;BME280;61560;33.718;73.040;2023-05-11T13:33:13;94277.19;;;32.98;17.56
73332;BME280;61560;33.718;73.040;2023-05-11T13:35:41;94266.22;;;32.87;17.96
73332;BME280;61560;33.718;73.040;2023-05-11T13:38:09;94269.09;;;32.72;17.66
73332;BME280;61560;33.718;73.040;2023-05-11T13:40:37;94271.75;;;32.63;18.22
73332;BME280;61560;33.718;73.040;2023-05-11T13:43:04;94274.06;;;32.49;18.96
73332;BME280;61560;33.718;73.040;2023-05-11T13:45:31;94267.22;;;32.37;19.25
73332;BME280;61560;33.718;73.040;2023-05-11T13:47:59;94271.25;;;32.26;19.33
73332;BME280;61560;33.718;73.040;2023-05-11T13:50:26;94268.97;;;32.17;19.21
73332;BME280;61560;33.718;73.040;2023-05-11T13:52:54;94275.78;;;32.07;19.11
73332;BME280;61560;33.718;73.040;2023-05-11T13:55:21;94278.63;;;31.99;18.79
73332;BME280;61560;33.718;73.040;2023-05-11T13:57:48;94272.72;;;31.90;18.43
73332;BME280;61560;33.718;73.040;2023-05-11T14:00:15;94275.75;;;31.84;18.66
73332;BME280;61560;33.718;73.040;2023-05-11T14:02:43;94279.34;;;31.77;18.90